Time;durP1;ratioP1;P1;durP2;ratioP2;P2;SDS_P1;SDS_P2;PMS_P1;PMS_P2;Temp;Humidity;BMP_temperature;BMP_pressure;BME280_temperature;BME280_humidity;BME280_pressure;Samples;Min_cycle;Max_cycle;Signal;HPM_P1;HPM_P2
2021/10/13 00:01:43;;;;;;;0.20;0.20;;;;;;;;;;5015154;28;20022;-70
2021/10/13 00:04:08;;;;;;;0.68;0.20;;;;;;;;;;5015233;28;20037;-69
2021/10/13 00:06:33;;;;;;;0.82;0.20;;;;;;;;;;5014663;28;20460;-69
2021/10/13 00:09:07;;;;;;;2.03;0.22;;;;;;;;;;5015214;28;20461;-70
2021/10/13 00:11:40;;;;;;;1.40;0.30;;;;;;;;;;5054840;28;20055;-71
2021/10/13 00:14:06;;;;;;;1.48;0.17;;;;;;;;;;5056868;28;20025;-70
2021/10/13 00:16:38;;;;;;;1.42;0.08;;;;;;;;;;5056714;28;20025;-70
2021/10/13 00:19:12;;;;;;;0.70;0.13;;;;;;;;;;5056812;28;20105;-70
2021/10/13 00:21:37;;;;;;;2.80;0.20;;;;;;;;;;5056603;28;20104;-69
2021/10/13 00:24:10;;;;;;;0.45;0.20;;;;;;;;;;5056568;28;20067;-71
2021/10/13 00:26:35;;;;;;;0.90;0.17;;;;;;;;;;5056484;28;20032;-71
2021/10/13 00:29:09;;;;;;;0.55;0.15;;;;;;;;;;5056616;28;20013;-70
2021/10/13 00:31:35;;;;;;;1.08;0.22;;;;;;;;;;5056430;28;20480;-69
2021/10/13 00:34:00;;;;;;;0.38;0.20;;;;;;;;;;5055258;28;20448;-70
2021/10/13 00:36:27;;;;;;;0.38;0.10;;;;;;;;;;5056323;28;20028;-70
2021/10/13 00:38:53;;;;;;;0.43;0.10;;;;;;;;;;5055064;28;20035;-69
2021/10/13 00:41:18;;;;;;;0.43;0.10;;;;;;;;;;5056368;28;20522;-70
2021/10/13 00:43:55;;;;;;;0.15;0.10;;;;;;;;;;5056261;28;20029;-71
2021/10/13 00:46:21;;;;;;;0.55;0.10;;;;;;;;;;5056018;28;20021;-70
2021/10/13 00:48:47;;;;;;;0.30;0.22;;;;;;;;;;5056088;28;20019;-69
2021/10/13 00:51:15;;;;;;;0.57;0.20;;;;;;;;;;5056286;28;20099;-69
2021/10/13 00:53:40;;;;;;;0.93;0.30;;;;;;;;;;5056021;28;20103;-70
2021/10/13 00:56:05;;;;;;;0.15;0.03;;;;;;;;;;5055986;28;20052;-71
2021/10/13 00:58:32;;;;;;;1.00;0.25;;;;;;;;;;5055980;28;20052;-69
2021/10/13 01:01:12;;;;;;;0.13;0.00;;;;;;;;;;5055988;28;20384;-70
2021/10/13 01:03:50;;;;;;;0.90;0.10;;;;;;;;;;5055782;28;20345;-70
2021/10/13 01:06:27;;;;;;;0.50;0.10;;;;;;;;;;5055553;28;20120;-69
2021/10/13 01:09:17;;;;;;;0.70;0.38;;;;;;;;;;5055806;28;20025;-71
2021/10/13 01:11:57;;;;;;;0.65;0.20;;;;;;;;;;5055664;28;20019;-69
2021/10/13 01:14:22;;;;;;;1.85;0.20;;;;;;;;;;5055562;28;20099;-71
2021/10/13 01:16:52;;;;;;;0.40;0.20;;;;;;;;;;5055630;28;20052;-70
2021/10/13 01:19:38;;;;;;;0.10;0.10;;;;;;;;;;5055665;28;20253;-70
2021/10/13 01:22:15;;;;;;;0.90;0.13;;;;;;;;;;5055801;28;20071;-70
2021/10/13 01:25:00;;;;;;;1.75;0.30;;;;;;;;;;5054184;28;20021;-71
2021/10/13 01:28:04;;;;;;;0.47;0.10;;;;;;;;;;5055013;28;20021;-69
2021/10/13 01:30:37;;;;;;;0.30;0.10;;;;;;;;;;5055309;28;20040;-71
2021/10/13 01:33:07;;;;;;;0.10;0.10;;;;;;;;;;5054200;28;20017;-69
2021/10/13 01:35:38;;;;;;;0.30;0.10;;;;;;;;;;5053997;28;20250;-69
2021/10/13 01:38:06;;;;;;;0.30;0.10;;;;;;;;;;5055184;28;20057;-71
2021/10/13 01:40:39;;;;;;;0.65;0.25;;;;;;;;;;5055172;28;20453;-71
2021/10/13 01:43:05;;;;;;;0.68;0.10;;;;;;;;;;5055157;28;20016;-70
2021/10/13 01:45:44;;;;;;;0.82;0.10;;;;;;;;;;5053824;28;20066;-71
2021/10/13 01:48:12;;;;;;;0.30;0.00;;;;;;;;;;5054998;28;20405;-70
2021/10/13 01:50:38;;;;;;;1.23;0.10;;;;;;;;;;5054917;28;20507;-69
2021/10/13 01:53:09;;;;;;;0.20;0.10;;;;;;;;;;5054836;28;20017;-70
2021/10/13 01:55:39;;;;;;;0.50;0.20;;;;;;;;;;5053595;28;20017;-71
2021/10/13 01:58:05;;;;;;;0.30;0.08;;;;;;;;;;5054793;28;20021;-70
2021/10/13 02:00:31;;;;;;;0.43;0.13;;;;;;;;;;5045988;23;20061;-70
2021/10/13 02:02:56;;;;;;;1.95;0.22;;;;;;;;;;5015016;28;20041;-70
2021/10/13 02:05:22;;;;;;;0.85;0.20;;;;;;;;;;5014856;28;20518;-69
2021/10/13 02:07:49;;;;;;;0.20;0.20;;;;;;;;;;5013916;28;20079;-69
2021/10/13 02:10:21;;;;;;;0.43;0.10;;;;;;;;;;5014845;28;20452;-70
2021/10/13 02:12:55;;;;;;;1.13;0.15;;;;;;;;;;5014880;28;20134;-71
2021/10/13 02:15:27;;;;;;;1.05;0.20;;;;;;;;;;5014789;28;20010;-69
2021/10/13 02:17:59;;;;;;;0.77;0.20;;;;;;;;;;5013814;28;20112;-70
2021/10/13 02:20:28;;;;;;;0.65;0.22;;;;;;;;;;5014693;28;20049;-70
2021/10/13 02:23:10;;;;;;;0.20;0.20;;;;;;;;;;5014323;28;20369;-69
2021/10/13 02:25:39;;;;;;;1.65;0.20;;;;;;;;;;5014432;28;20631;-70
2021/10/13 02:28:14;;;;;;;0.15;0.15;;;;;;;;;;5014628;28;20420;-70
2021/10/13 02:30:39;;;;;;;0.40;0.20;;;;;;;;;;5014521;28;20018;-69
2021/10/13 02:33:06;;;;;;;0.93;0.10;;;;;;;;;;5013353;28;20072;-70
2021/10/13 02:35:42;;;;;;;0.35;0.20;;;;;;;;;;5014484;28;20491;-70
2021/10/13 02:38:22;;;;;;;0.10;0.10;;;;;;;;;;5014516;28;20088;-70
2021/10/13 02:41:17;;;;;;;0.20;0.10;;;;;;;;;;5014493;28;20068;-70
2021/10/13 02:43:43;;;;;;;0.65;0.10;;;;;;;;;;4992649;28;20110;-69
2021/10/13 02:46:16;;;;;;;2.00;0.13;;;;;;;;;;4992729;28;20026;-69
2021/10/13 02:48:43;;;;;;;0.30;0.30;;;;;;;;;;4992928;28;20068;-71
2021/10/13 02:51:23;;;;;;;1.42;0.47;;;;;;;;;;4993015;28;20018;-70
2021/10/13 02:53:53;;;;;;;0.30;0.20;;;;;;;;;;4992423;28;20037;-70
2021/10/13 02:56:25;;;;;;;0.60;0.20;;;;;;;;;;4992671;28;20026;-70
2021/10/13 02:58:51;;;;;;;3.30;0.17;;;;;;;;;;4992505;28;20034;-69
2021/10/13 03:01:16;;;;;;;0.70;0.20;;;;;;;;;;4992352;28;20093;-70
2021/10/13 03:03:47;;;;;;;0.98;0.10;;;;;;;;;;4992390;28;20039;-71
2021/10/13 03:06:13;;;;;;;0.82;0.20;;;;;;;;;;4992494;28;20030;-70
2021/10/13 03:08:41;;;;;;;0.20;0.10;;;;;;;;;;4992539;28;20022;-69
2021/10/13 03:11:21;;;;;;;0.10;0.00;;;;;;;;;;4992508;28;20050;-70
2021/10/13 03:13:50;;;;;;;0.73;0.10;;;;;;;;;;4992504;28;20113;-70
2021/10/13 03:16:18;;;;;;;0.00;0.00;;;;;;;;;;4992198;28;20023;-69
2021/10/13 03:18:55;;;;;;;0.32;0.10;;;;;;;;;;4992442;28;20030;-70
2021/10/13 03:21:26;;;;;;;0.43;0.10;;;;;;;;;;4994715;28;20034;-70
2021/10/13 03:23:52;;;;;;;1.50;0.30;;;;;;;;;;4993201;28;20027;-68
2021/10/13 03:26:17;;;;;;;0.77;0.10;;;;;;;;;;4994219;28;20024;-69
2021/10/13 03:28:43;;;;;;;0.40;0.20;;;;;;;;;;4993031;28;20404;-70
2021/10/13 03:31:09;;;;;;;0.13;0.05;;;;;;;;;;4993171;28;20026;-70
2021/10/13 03:33:38;;;;;;;0.43;0.20;;;;;;;;;;4994527;28;20015;-70
2021/10/13 03:36:07;;;;;;;0.28;0.10;;;;;;;;;;4998341;28;20026;-70
2021/10/13 03:39:03;;;;;;;1.10;0.35;;;;;;;;;;4996874;28;20018;-70
2021/10/13 03:41:28;;;;;;;1.08;0.00;;;;;;;;;;4976336;28;20042;-69
2021/10/13 03:43:54;;;;;;;0.57;0.10;;;;;;;;;;4976331;28;20038;-69
2021/10/13 03:46:31;;;;;;;0.10;0.10;;;;;;;;;;4976291;28;20043;-70
2021/10/13 03:48:58;;;;;;;0.00;0.00;;;;;;;;;;4976475;28;20101;-69
2021/10/13 03:51:24;;;;;;;0.15;0.10;;;;;;;;;;4976188;28;20085;-69
2021/10/13 03:53:50;;;;;;;0.60;0.13;;;;;;;;;;4976312;28;20110;-70
2021/10/13 03:56:17;;;;;;;0.00;0.00;;;;;;;;;;4976248;28;20038;-70
2021/10/13 03:58:45;;;;;;;0.45;0.10;;;;;;;;;;4976248;28;20054;-69
2021/10/13 04:01:11;;;;;;;0.55;0.10;;;;;;;;;;4976029;28;20059;-69
2021/10/13 04:03:36;;;;;;;0.13;0.10;;;;;;;;;;4976036;28;20038;-71
2021/10/13 04:06:02;;;;;;;0.22;0.20;;;;;;;;;;4976030;28;20026;-70
2021/10/13 04:08:28;;;;;;;1.23;0.45;;;;;;;;;;4976005;28;20374;-69
2021/10/13 04:10:55;;;;;;;1.10;0.17;;;;;;;;;;4976193;28;20046;-70
2021/10/13 04:13:20;;;;;;;0.43;0.20;;;;;;;;;;4975908;28;20621;-69
2021/10/13 04:15:47;;;;;;;0.30;0.10;;;;;;;;;;4975836;28;20110;-69
2021/10/13 04:18:27;;;;;;;0.88;0.10;;;;;;;;;;4964726;28;20035;-69
2021/10/13 04:21:08;;;;;;;0.70;0.20;;;;;;;;;;4957456;28;20359;-71
2021/10/13 04:23:33;;;;;;;0.10;0.10;;;;;;;;;;4958449;28;20027;-69
2021/10/13 04:26:07;;;;;;;0.50;0.10;;;;;;;;;;4958426;28;20019;-70
2021/10/13 04:28:33;;;;;;;0.40;0.10;;;;;;;;;;4958462;28;20023;-69
2021/10/13 04:30:59;;;;;;;0.20;0.10;;;;;;;;;;4958482;28;20438;-70
2021/10/13 04:33:26;;;;;;;1.23;0.13;;;;;;;;;;4958355;28;20042;-69
2021/10/13 04:35:52;;;;;;;1.25;0.10;;;;;;;;;;4956959;28;20026;-70
2021/10/13 04:38:18;;;;;;;0.20;0.10;;;;;;;;;;4972009;28;20496;-70
2021/10/13 04:40:43;;;;;;;0.35;0.05;;;;;;;;;;4977452;28;20481;-70
2021/10/13 04:43:09;;;;;;;0.55;0.10;;;;;;;;;;4977253;28;20043;-69
2021/10/13 04:45:36;;;;;;;0.50;0.13;;;;;;;;;;4976965;28;20398;-69
2021/10/13 04:48:16;;;;;;;0.20;0.10;;;;;;;;;;4977286;28;20019;-70
2021/10/13 04:50:41;;;;;;;0.60;0.13;;;;;;;;;;4977519;28;20023;-70
2021/10/13 04:53:06;;;;;;;0.52;0.32;;;;;;;;;;4977442;28;20014;-70
2021/10/13 04:55:32;;;;;;;0.17;0.10;;;;;;;;;;4977195;28;20015;-70
2021/10/13 04:57:57;;;;;;;0.73;0.10;;;;;;;;;;4977219;28;20257;-69
2021/10/13 05:00:22;;;;;;;0.10;0.00;;;;;;;;;;4984657;28;20033;-70
2021/10/13 05:02:47;;;;;;;0.30;0.00;;;;;;;;;;5016271;28;20022;-70
2021/10/13 05:05:15;;;;;;;0.50;0.20;;;;;;;;;;5015048;28;20018;-70
2021/10/13 05:07:50;;;;;;;0.05;0.00;;;;;;;;;;5016121;28;20468;-70
2021/10/13 05:10:17;;;;;;;0.38;0.13;;;;;;;;;;5014906;28;20022;-69
2021/10/13 05:12:43;;;;;;;0.82;0.50;;;;;;;;;;5015847;28;20457;-71
2021/10/13 05:15:09;;;;;;;0.95;0.10;;;;;;;;;;5015881;28;20448;-70
2021/10/13 05:17:34;;;;;;;0.30;0.10;;;;;;;;;;5015609;28;20037;-70
2021/10/13 05:20:02;;;;;;;0.05;0.00;;;;;;;;;;5016016;28;20466;-71
2021/10/13 05:22:27;;;;;;;0.17;0.00;;;;;;;;;;5014548;28;20472;-71
2021/10/13 05:24:54;;;;;;;1.25;0.28;;;;;;;;;;5014653;28;20025;-70
2021/10/13 05:27:21;;;;;;;0.00;0.00;;;;;;;;;;5015656;28;20564;-70
2021/10/13 05:29:55;;;;;;;0.10;0.10;;;;;;;;;;5015604;28;20468;-70
2021/10/13 05:32:21;;;;;;;1.23;0.15;;;;;;;;;;5015554;28;20159;-69
2021/10/13 05:34:47;;;;;;;0.73;0.10;;;;;;;;;;5015436;28;20364;-69
2021/10/13 05:37:12;;;;;;;0.15;0.15;;;;;;;;;;5014525;28;20425;-71
2021/10/13 05:39:38;;;;;;;0.10;0.10;;;;;;;;;;5015421;28;20029;-71
2021/10/13 05:42:03;;;;;;;0.40;0.13;;;;;;;;;;5015403;28;20058;-69
2021/10/13 05:44:38;;;;;;;1.13;0.10;;;;;;;;;;5015273;28;20401;-69
2021/10/13 05:47:10;;;;;;;0.13;0.00;;;;;;;;;;5014134;28;20044;-70
2021/10/13 05:49:38;;;;;;;0.20;0.10;;;;;;;;;;5015134;28;20543;-70
2021/10/13 05:52:06;;;;;;;0.20;0.20;;;;;;;;;;5014070;28;20068;-70
2021/10/13 05:54:40;;;;;;;1.58;0.22;;;;;;;;;;5015098;28;20052;-70
2021/10/13 05:57:07;;;;;;;0.38;0.08;;;;;;;;;;5014390;28;20480;-71
2021/10/13 05:59:36;;;;;;;0.43;0.13;;;;;;;;;;5014810;28;20079;-69
2021/10/13 06:02:01;;;;;;;0.63;0.03;;;;;;;;;;5014904;28;20485;-69
2021/10/13 06:04:26;;;;;;;0.00;0.00;;;;;;;;;;5013615;28;20068;-71
2021/10/13 06:07:01;;;;;;;0.43;0.00;;;;;;;;;;5014832;28;20108;-70
2021/10/13 06:09:27;;;;;;;0.10;0.10;;;;;;;;;;5014775;28;20104;-70
2021/10/13 06:12:03;;;;;;;0.70;0.00;;;;;;;;;;5013606;28;20120;-70
2021/10/13 06:14:29;;;;;;;0.28;0.20;;;;;;;;;;5014686;28;20021;-70
2021/10/13 06:16:54;;;;;;;0.50;0.10;;;;;;;;;;5014751;28;20113;-69
2021/10/13 06:19:29;;;;;;;0.10;0.10;;;;;;;;;;5014533;28;20089;-69
2021/10/13 06:21:57;;;;;;;0.00;0.00;;;;;;;;;;5013600;28;20018;-71
2021/10/13 06:24:22;;;;;;;0.00;0.00;;;;;;;;;;5013381;28;20041;-70
2021/10/13 06:26:47;;;;;;;0.45;0.10;;;;;;;;;;5013221;28;20469;-70
2021/10/13 06:29:14;;;;;;;0.32;0.08;;;;;;;;;;5014500;28;20472;-70
2021/10/13 06:31:47;;;;;;;0.40;0.17;;;;;;;;;;5014589;28;20432;-70
2021/10/13 06:34:12;;;;;;;0.40;0.10;;;;;;;;;;5014454;28;20021;-70
2021/10/13 06:36:37;;;;;;;0.40;0.10;;;;;;;;;;5014211;28;20022;-69
2021/10/13 06:39:15;;;;;;;0.20;0.13;;;;;;;;;;5014300;28;20018;-70
2021/10/13 06:41:42;;;;;;;0.08;0.00;;;;;;;;;;5014221;28;20022;-71
2021/10/13 06:44:07;;;;;;;0.82;0.30;;;;;;;;;;5013088;28;20377;-69
2021/10/13 06:46:32;;;;;;;0.20;0.10;;;;;;;;;;5014047;28;20029;-69
2021/10/13 06:48:58;;;;;;;0.82;0.30;;;;;;;;;;5014215;28;20049;-70
2021/10/13 06:51:33;;;;;;;0.43;0.10;;;;;;;;;;5014202;28;20026;-70
2021/10/13 06:54:04;;;;;;;;;;;;;;;;;;5014468;28;20475;-70
2021/10/13 06:56:30;;;;;;;0.30;0.10;;;;;;;;;;5014205;28;19941;-70
2021/10/13 06:59:01;;;;;;;0.28;0.10;;;;;;;;;;5013948;28;20045;-71
2021/10/13 07:01:26;;;;;;;1.63;0.10;;;;;;;;;;5013970;28;20046;-70
2021/10/13 07:03:52;;;;;;;0.00;0.00;;;;;;;;;;5013985;28;20028;-69
2021/10/13 07:06:17;;;;;;;0.30;0.10;;;;;;;;;;5013833;28;20029;-69
2021/10/13 07:08:44;;;;;;;0.52;0.35;;;;;;;;;;5017591;28;20013;-71
2021/10/13 07:11:11;;;;;;;0.20;0.00;;;;;;;;;;5019129;28;20017;-71
2021/10/13 07:13:37;;;;;;;0.13;0.10;;;;;;;;;;5020467;28;20155;-69
2021/10/13 07:16:04;;;;;;;0.95;0.30;;;;;;;;;;5020437;28;20105;-70
2021/10/13 07:18:38;;;;;;;0.82;0.20;;;;;;;;;;5020478;28;20026;-71
2021/10/13 07:21:04;;;;;;;0.10;0.10;;;;;;;;;;5020481;28;20022;-70
2021/10/13 07:23:30;;;;;;;0.10;0.08;;;;;;;;;;5020340;28;20022;-70
2021/10/13 07:25:58;;;;;;;0.60;0.20;;;;;;;;;;5020297;28;20030;-70
2021/10/13 07:28:26;;;;;;;0.90;0.10;;;;;;;;;;5020359;28;20024;-71
2021/10/13 07:30:52;;;;;;;0.00;0.00;;;;;;;;;;5020319;28;20069;-70
2021/10/13 07:33:17;;;;;;;1.55;0.13;;;;;;;;;;5020270;28;20022;-69
2021/10/13 07:35:42;;;;;;;0.17;0.10;;;;;;;;;;5019061;28;20021;-70
2021/10/13 07:38:11;;;;;;;0.10;0.10;;;;;;;;;;5020364;28;20029;-70
2021/10/13 07:40:36;;;;;;;1.55;0.10;;;;;;;;;;5020213;28;20456;-70
2021/10/13 07:43:02;;;;;;;0.45;0.20;;;;;;;;;;5020207;28;20026;-70
2021/10/13 07:45:39;;;;;;;0.43;0.10;;;;;;;;;;5020188;28;20028;-70
2021/10/13 07:48:04;;;;;;;1.02;0.05;;;;;;;;;;5020264;28;20024;-70
2021/10/13 07:50:30;;;;;;;0.88;0.40;;;;;;;;;;5020075;28;20014;-69
2021/10/13 07:52:57;;;;;;;0.08;0.00;;;;;;;;;;5019982;28;20097;-69
2021/10/13 07:55:28;;;;;;;0.60;0.10;;;;;;;;;;5019343;28;20441;-71
2021/10/13 07:57:55;;;;;;;0.17;0.17;;;;;;;;;;5020431;28;20049;-71
2021/10/13 08:00:20;;;;;;;0.63;0.00;;;;;;;;;;5019624;28;20515;-69
2021/10/13 08:02:46;;;;;;;0.30;0.10;;;;;;;;;;5020056;28;20109;-70
2021/10/13 08:05:12;;;;;;;0.50;0.10;;;;;;;;;;5020124;28;20036;-70
2021/10/13 08:07:37;;;;;;;0.77;0.32;;;;;;;;;;5018724;28;20018;-70
2021/10/13 08:10:05;;;;;;;0.50;0.10;;;;;;;;;;5019988;28;20045;-69
2021/10/13 08:12:31;;;;;;;0.25;0.15;;;;;;;;;;5019898;28;20215;-70
2021/10/13 08:14:59;;;;;;;0.32;0.10;;;;;;;;;;5020223;28;20018;-72
2021/10/13 08:17:25;;;;;;;0.13;0.13;;;;;;;;;;5018744;28;20028;-71
2021/10/13 08:19:51;;;;;;;0.10;0.10;;;;;;;;;;5018010;28;20476;-69
2021/10/13 08:22:23;;;;;;;0.45;0.10;;;;;;;;;;5016856;28;20462;-69
2021/10/13 08:24:49;;;;;;;0.05;0.00;;;;;;;;;;5016823;28;20026;-70
2021/10/13 08:27:24;;;;;;;0.52;0.00;;;;;;;;;;5015528;28;20018;-71
2021/10/13 08:29:50;;;;;;;0.10;0.00;;;;;;;;;;5016787;28;20445;-70
2021/10/13 08:32:15;;;;;;;0.85;0.10;;;;;;;;;;5016526;28;20018;-70
2021/10/13 08:34:41;;;;;;;0.95;0.43;;;;;;;;;;5016652;28;20102;-71
2021/10/13 08:37:08;;;;;;;0.28;0.10;;;;;;;;;;5016716;28;20354;-70
2021/10/13 08:39:34;;;;;;;1.60;0.63;;;;;;;;;;5016404;28;20022;-69
2021/10/13 08:41:59;;;;;;;0.03;0.00;;;;;;;;;;5016653;28;20049;-70
2021/10/13 08:44:25;;;;;;;0.00;0.00;;;;;;;;;;5016525;28;20400;-72
2021/10/13 08:46:52;;;;;;;0.28;0.10;;;;;;;;;;5016436;28;20030;-71
2021/10/13 08:49:17;;;;;;;0.28;0.17;;;;;;;;;;5015908;28;20022;-70
2021/10/13 08:51:44;;;;;;;0.40;0.15;;;;;;;;;;5015206;28;20109;-70
2021/10/13 08:54:13;;;;;;;1.08;0.38;;;;;;;;;;5015915;28;20028;-71
2021/10/13 08:56:39;;;;;;;0.85;0.20;;;;;;;;;;5016421;28;20346;-70
2021/10/13 08:59:24;;;;;;;1.42;0.10;;;;;;;;;;5016320;28;20125;-70
2021/10/13 09:01:49;;;;;;;;;;;;;;;;;;5015189;28;20052;-72
2021/10/13 09:04:14;;;;;;;0.17;0.00;;;;;;;;;;5016114;28;19996;-70
2021/10/13 09:06:46;;;;;;;0.50;0.10;;;;;;;;;;5016040;28;20047;-72
2021/10/13 09:09:11;;;;;;;0.50;0.08;;;;;;;;;;5016232;28;20026;-71
2021/10/13 09:11:43;;;;;;;0.50;0.20;;;;;;;;;;5014765;28;20153;-70
2021/10/13 09:17:25;;;;;;;0.00;0.00;;;;;;;;;;4994113;28;20041;-70
2021/10/13 09:19:59;;;;;;;0.10;0.00;;;;;;;;;;4994071;28;20136;-71
2021/10/13 09:22:33;;;;;;;0.22;0.10;;;;;;;;;;4994535;28;20260;-71
2021/10/13 09:25:11;;;;;;;0.35;0.20;;;;;;;;;;4994344;28;20034;-70
2021/10/13 09:27:36;;;;;;;0.10;0.10;;;;;;;;;;4994340;28;20030;-72
2021/10/13 09:30:10;;;;;;;0.32;0.10;;;;;;;;;;4994183;28;20022;-72
2021/10/13 09:32:41;;;;;;;0.35;0.10;;;;;;;;;;4992997;28;20134;-70
2021/10/13 09:35:07;;;;;;;0.10;0.10;;;;;;;;;;4994394;28;20022;-70
2021/10/13 09:37:45;;;;;;;0.10;0.10;;;;;;;;;;4994214;28;20080;-71
2021/10/13 09:40:36;;;;;;;0.17;0.10;;;;;;;;;;4993917;28;20042;-70
2021/10/13 09:43:03;;;;;;;0.45;0.20;;;;;;;;;;4994009;28;20026;-71
2021/10/13 09:45:29;;;;;;;0.20;0.15;;;;;;;;;;4993746;28;20034;-70
2021/10/13 09:48:04;;;;;;;0.35;0.10;;;;;;;;;;4994316;28;20054;-70
2021/10/13 09:50:43;;;;;;;0.40;0.30;;;;;;;;;;4993688;28;20029;-71
2021/10/13 09:53:20;;;;;;;0.98;0.10;;;;;;;;;;5005802;28;20037;-72
2021/10/13 09:55:46;;;;;;;0.08;0.00;;;;;;;;;;5015324;28;20068;-69
2021/10/13 09:58:38;;;;;;;1.75;0.20;;;;;;;;;;5014220;28;20453;-71
2021/10/13 10:01:08;;;;;;;1.35;0.10;;;;;;;;;;5011719;28;20056;-70
2021/10/13 10:03:34;;;;;;;0.20;0.10;;;;;;;;;;5015047;28;20476;-70
2021/10/13 10:06:00;;;;;;;0.30;0.10;;;;;;;;;;5014045;28;20025;-72
2021/10/13 10:08:26;;;;;;;0.75;0.10;;;;;;;;;;5014004;28;20104;-70
2021/10/13 10:11:02;;;;;;;0.98;0.20;;;;;;;;;;5015084;28;20101;-70
2021/10/13 10:13:54;;;;;;;0.10;0.10;;;;;;;;;;5015188;28;20497;-71
2021/10/13 10:16:34;;;;;;;0.20;0.20;;;;;;;;;;5014927;28;20058;-70
2021/10/13 10:19:18;;;;;;;0.17;0.08;;;;;;;;;;5015059;28;20057;-71
2021/10/13 10:21:53;;;;;;;0.20;0.20;;;;;;;;;;5015158;28;20495;-71
2021/10/13 10:24:24;;;;;;;0.08;0.08;;;;;;;;;;5014879;28;20416;-70
2021/10/13 10:26:51;;;;;;;0.95;0.10;;;;;;;;;;5014682;28;20025;-72
2021/10/13 10:29:45;;;;;;;2.05;0.20;;;;;;;;;;5015013;28;20022;-72
2021/10/13 10:32:26;;;;;;;0.25;0.08;;;;;;;;;;4954196;29;20043;-70
2021/10/13 10:35:05;;;;;;;0.65;0.13;;;;;;;;;;4938229;29;20033;-71
2021/10/13 10:37:52;;;;;;;0.20;0.20;;;;;;;;;;4961736;28;20121;-70
2021/10/13 10:40:37;;;;;;;0.52;0.10;;;;;;;;;;4973479;28;20154;-72
2021/10/13 10:43:04;;;;;;;0.68;0.10;;;;;;;;;;4973099;28;20031;-70
2021/10/13 10:45:29;;;;;;;0.20;0.10;;;;;;;;;;4973352;28;20037;-70
2021/10/13 10:48:12;;;;;;;0.20;0.00;;;;;;;;;;4973409;28;20027;-70
2021/10/13 10:50:57;;;;;;;1.25;0.15;;;;;;;;;;4973324;28;20058;-72
2021/10/13 10:53:36;;;;;;;0.00;0.00;;;;;;;;;;4965361;28;20093;-70
2021/10/13 10:56:32;;;;;;;0.55;0.10;;;;;;;;;;4937911;29;20119;-71
2021/10/13 10:59:11;;;;;;;0.00;0.00;;;;;;;;;;4954145;29;20023;-71
2021/10/13 11:01:37;;;;;;;0.20;0.10;;;;;;;;;;4918710;29;20054;-71
2021/10/13 11:04:06;;;;;;;0.10;0.00;;;;;;;;;;4948102;29;20098;-71
2021/10/13 11:06:41;;;;;;;0.30;0.20;;;;;;;;;;4953644;29;20031;-70
2021/10/13 11:09:14;;;;;;;0.10;0.05;;;;;;;;;;4980393;28;20026;-70
2021/10/13 11:11:42;;;;;;;0.00;0.00;;;;;;;;;;5013375;28;20045;-72
2021/10/13 11:14:12;;;;;;;0.50;0.00;;;;;;;;;;5014153;28;20018;-69
2021/10/13 11:16:39;;;;;;;0.35;0.10;;;;;;;;;;5014063;28;20018;-69
2021/10/13 11:19:11;;;;;;;0.80;0.00;;;;;;;;;;5014268;28;20093;-70
2021/10/13 11:21:42;;;;;;;1.00;0.17;;;;;;;;;;5013069;28;20113;-71
2021/10/13 11:24:08;;;;;;;0.10;0.00;;;;;;;;;;5014168;28;20093;-70
2021/10/13 11:26:35;;;;;;;0.45;0.10;;;;;;;;;;5014077;28;20471;-70
2021/10/13 11:29:02;;;;;;;0.00;0.00;;;;;;;;;;5013862;28;20457;-70
2021/10/13 11:31:28;;;;;;;0.90;0.05;;;;;;;;;;5013987;28;20025;-71
2021/10/13 11:34:04;;;;;;;0.00;0.00;;;;;;;;;;5013946;28;20022;-69
2021/10/13 11:36:32;;;;;;;0.20;0.10;;;;;;;;;;5013874;28;20026;-69
2021/10/13 11:38:58;;;;;;;0.20;0.08;;;;;;;;;;5022719;28;20025;-72
2021/10/13 11:41:30;;;;;;;0.20;0.10;;;;;;;;;;5014005;28;20054;-72
2021/10/13 11:44:01;;;;;;;1.38;0.10;;;;;;;;;;5013820;28;20018;-70
2021/10/13 11:46:27;;;;;;;1.60;0.20;;;;;;;;;;5013714;28;20026;-70
2021/10/13 11:49:01;;;;;;;0.10;0.10;;;;;;;;;;5013766;28;20376;-70
2021/10/13 11:51:27;;;;;;;0.10;0.10;;;;;;;;;;5012745;28;20071;-69
2021/10/13 11:54:02;;;;;;;0.85;0.10;;;;;;;;;;5013660;28;20423;-70
2021/10/13 11:56:28;;;;;;;0.60;0.13;;;;;;;;;;5016769;28;20018;-72
2021/10/13 11:58:57;;;;;;;0.35;0.00;;;;;;;;;;5017819;28;20022;-71
2021/10/13 12:01:25;;;;;;;0.08;0.05;;;;;;;;;;5016024;28;20100;-70
2021/10/13 12:03:51;;;;;;;0.00;0.00;;;;;;;;;;5017114;28;20026;-70
2021/10/13 12:06:17;;;;;;;0.28;0.20;;;;;;;;;;5017094;28;20526;-70
2021/10/13 12:08:42;;;;;;;0.30;0.08;;;;;;;;;;5016787;28;20326;-71
2021/10/13 12:11:11;;;;;;;0.45;0.00;;;;;;;;;;5016183;28;20028;-70
2021/10/13 12:13:42;;;;;;;1.08;0.10;;;;;;;;;;5016575;28;20018;-69
2021/10/13 12:16:08;;;;;;;0.00;0.00;;;;;;;;;;5016042;28;20496;-70
2021/10/13 12:18:34;;;;;;;0.28;0.20;;;;;;;;;;5015302;28;20476;-70
2021/10/13 12:21:03;;;;;;;0.50;0.30;;;;;;;;;;5015287;28;20408;-69
2021/10/13 12:23:29;;;;;;;0.65;0.17;;;;;;;;;;5016045;28;20488;-69
2021/10/13 12:25:55;;;;;;;0.15;0.08;;;;;;;;;;5016416;28;20064;-70
2021/10/13 12:28:22;;;;;;;0.40;0.20;;;;;;;;;;5016165;28;20026;-71
2021/10/13 12:30:56;;;;;;;0.68;0.10;;;;;;;;;;5016281;28;20088;-70
2021/10/13 12:33:21;;;;;;;0.20;0.15;;;;;;;;;;5016004;28;20041;-69
2021/10/13 12:35:46;;;;;;;0.60;0.20;;;;;;;;;;5015959;28;20049;-70
2021/10/13 12:38:16;;;;;;;0.10;0.00;;;;;;;;;;5011804;28;20018;-70
2021/10/13 12:41:07;;;;;;;0.95;0.20;;;;;;;;;;5014185;28;20018;-70
2021/10/13 12:43:59;;;;;;;0.00;0.00;;;;;;;;;;5012425;28;20026;-70
2021/10/13 12:46:31;;;;;;;1.30;0.35;;;;;;;;;;5012153;28;20066;-70
2021/10/13 12:49:10;;;;;;;0.22;0.10;;;;;;;;;;5015536;28;20025;-70
2021/10/13 12:51:46;;;;;;;0.13;0.00;;;;;;;;;;5012964;28;20018;-70
2021/10/13 12:54:13;;;;;;;0.52;0.00;;;;;;;;;;5009922;28;20022;-69
2021/10/13 12:56:38;;;;;;;0.20;0.10;;;;;;;;;;5015964;28;20022;-70
2021/10/13 12:59:05;;;;;;;0.10;0.10;;;;;;;;;;5015771;28;20799;-72
2021/10/13 13:01:30;;;;;;;0.32;0.10;;;;;;;;;;5012338;28;20773;-69
2021/10/13 13:03:55;;;;;;;0.37;0.10;;;;;;;;;;5014758;28;20018;-69
2021/10/13 13:06:21;;;;;;;0.88;0.10;;;;;;;;;;5015103;28;20034;-70
2021/10/13 13:08:47;;;;;;;0.20;0.20;;;;;;;;;;5015730;28;20022;-71
2021/10/13 13:11:13;;;;;;;0.10;0.00;;;;;;;;;;5021906;28;20022;-68
2021/10/13 13:13:48;;;;;;;0.32;0.05;;;;;;;;;;5015698;28;20018;-70
2021/10/13 13:16:26;;;;;;;0.13;0.10;;;;;;;;;;5014699;28;20026;-71
2021/10/13 13:18:51;;;;;;;0.25;0.10;;;;;;;;;;5015414;28;20025;-70
2021/10/13 13:21:19;;;;;;;0.10;0.00;;;;;;;;;;5007081;28;20141;-69
2021/10/13 13:23:44;;;;;;;0.20;0.20;;;;;;;;;;5015155;28;20402;-71
2021/10/13 13:26:10;;;;;;;0.57;0.00;;;;;;;;;;5012662;28;20107;-71
2021/10/13 13:28:36;;;;;;;0.10;0.10;;;;;;;;;;5011128;28;20026;-70
2021/10/13 13:31:03;;;;;;;0.20;0.10;;;;;;;;;;5026210;28;20013;-71
2021/10/13 13:33:37;;;;;;;0.80;0.10;;;;;;;;;;5011186;28;20018;-71
2021/10/13 13:36:04;;;;;;;0.10;0.10;;;;;;;;;;5015481;28;20024;-72
2021/10/13 13:38:38;;;;;;;0.20;0.10;;;;;;;;;;5015206;28;20044;-70
2021/10/13 13:41:04;;;;;;;0.00;0.00;;;;;;;;;;5012823;28;20040;-70
2021/10/13 13:43:37;;;;;;;0.85;0.10;;;;;;;;;;5013937;28;20021;-72
2021/10/13 13:46:03;;;;;;;1.17;0.60;;;;;;;;;;5015382;28;20022;-70
2021/10/13 13:48:29;;;;;;;0.30;0.10;;;;;;;;;;5013807;28;20014;-71
2021/10/13 13:50:58;;;;;;;0.55;0.08;;;;;;;;;;5014793;28;20064;-72
2021/10/13 13:53:24;;;;;;;0.43;0.10;;;;;;;;;;5015015;28;20014;-71
2021/10/13 13:55:50;;;;;;;0.00;0.00;;;;;;;;;;5014429;28;20034;-70
2021/10/13 13:58:15;;;;;;;0.20;0.13;;;;;;;;;;5014692;28;20456;-72
2021/10/13 14:00:42;;;;;;;0.88;0.10;;;;;;;;;;5014117;28;20345;-71
2021/10/13 14:03:07;;;;;;;1.30;0.15;;;;;;;;;;5014559;28;20034;-73
2021/10/13 14:05:42;;;;;;;0.30;0.00;;;;;;;;;;5014795;28;20029;-71
2021/10/13 14:08:08;;;;;;;0.55;0.05;;;;;;;;;;5013494;28;20026;-71
2021/10/13 14:10:44;;;;;;;0.10;0.00;;;;;;;;;;5014660;28;20018;-73
2021/10/13 14:13:09;;;;;;;0.30;0.10;;;;;;;;;;5014061;28;20041;-69
2021/10/13 14:15:36;;;;;;;0.20;0.13;;;;;;;;;;5014026;28;20026;-72
2021/10/13 14:18:01;;;;;;;0.30;0.20;;;;;;;;;;5014079;28;20029;-73
2021/10/13 14:20:28;;;;;;;0.30;0.00;;;;;;;;;;5014381;28;20026;-71
2021/10/13 14:22:54;;;;;;;0.30;0.08;;;;;;;;;;5014676;28;20096;-72
2021/10/13 14:25:21;;;;;;;1.08;0.08;;;;;;;;;;5014409;28;20021;-72
2021/10/13 14:27:47;;;;;;;0.00;0.00;;;;;;;;;;5014682;28;20025;-72
2021/10/13 14:30:13;;;;;;;0.65;0.10;;;;;;;;;;5014854;28;20490;-72
2021/10/13 14:32:51;;;;;;;0.00;0.00;;;;;;;;;;5014782;28;20026;-71
2021/10/13 14:35:17;;;;;;;0.30;0.10;;;;;;;;;;5014801;28;20022;-72
2021/10/13 14:37:48;;;;;;;1.15;0.17;;;;;;;;;;5013369;28;20077;-72
2021/10/13 14:40:34;;;;;;;0.63;0.00;;;;;;;;;;5014737;28;20014;-70
2021/10/13 14:43:12;;;;;;;0.65;0.10;;;;;;;;;;5014664;28;20022;-73
2021/10/13 14:45:38;;;;;;;0.32;0.20;;;;;;;;;;5014564;28;20400;-71
2021/10/13 14:48:03;;;;;;;0.10;0.00;;;;;;;;;;5014371;28;20025;-73
2021/10/13 14:50:34;;;;;;;0.60;0.10;;;;;;;;;;5014461;28;20056;-72
2021/10/13 14:52:59;;;;;;;0.10;0.10;;;;;;;;;;5014473;28;20042;-71
2021/10/13 14:55:37;;;;;;;0.93;0.20;;;;;;;;;;5014363;28;20463;-72
2021/10/13 14:58:13;;;;;;;0.35;0.25;;;;;;;;;;5014395;28;20026;-71
2021/10/13 15:00:40;;;;;;;0.45;0.00;;;;;;;;;;5014405;28;20580;-72
2021/10/13 15:03:05;;;;;;;0.20;0.03;;;;;;;;;;5014136;28;20481;-72